createdAt,value
2022-08-03T00:01:49.771Z,70.67
2022-08-03T00:04:17.132Z,72.99
2022-08-03T00:06:43.639Z,72.11
2022-08-03T00:09:11.341Z,71.64
2022-08-03T00:11:38.618Z,73.75
2022-08-03T00:14:05.759Z,74.93
2022-08-03T00:16:32.599Z,75.73
2022-08-03T00:19:00.860Z,75.02
2022-08-03T00:21:28.444Z,73.76
2022-08-03T00:23:54.934Z,75.12
2022-08-03T00:26:21.982Z,76.15
2022-08-03T00:28:49.880Z,75.61
2022-08-03T00:31:23.025Z,77.13
2022-08-03T00:33:58.090Z,76.92
2022-08-03T00:36:27.421Z,76.73
2022-08-03T00:38:54.403Z,75.86
2022-08-03T00:41:20.997Z,75.96
2022-08-03T00:43:47.846Z,76.32
2022-08-03T00:46:19.190Z,77.29
2022-08-03T00:48:50.960Z,78.96
2022-08-03T00:51:18.776Z,79.26
2022-08-03T00:53:46.038Z,79.08
2022-08-03T00:56:16.308Z,79.90
2022-08-03T00:58:45.355Z,80.19
2022-08-03T01:01:12.656Z,78.38
2022-08-03T01:03:39.603Z,78.66
2022-08-03T01:06:15.013Z,78.09
2022-08-03T01:08:48.679Z,78.86
2022-08-03T01:11:30.274Z,81.17
2022-08-03T01:14:28.006Z,79.94
2022-08-03T01:17:02.041Z,79.82
2022-08-03T01:19:48.959Z,79.55
2022-08-03T01:22:15.553Z,79.68
2022-08-03T01:25:23.324Z,80.72
2022-08-03T01:27:58.614Z,81.30
2022-08-03T01:30:30.792Z,80.21
2022-08-03T01:33:16.587Z,80.06
2022-08-03T01:36:05.273Z,80.61
2022-08-03T01:38:38.644Z,79.60
2022-08-03T01:41:09.063Z,80.54
2022-08-03T01:44:27.725Z,82.05
2022-08-03T01:46:26.300Z,81.70
2022-08-03T01:48:55.217Z,81.35
2022-08-03T01:51:22.641Z,81.42
2022-08-03T01:53:51.124Z,81.39
2022-08-03T01:56:19.946Z,82.33
2022-08-03T01:58:49.718Z,83.68
2022-08-03T02:01:17.248Z,85.20
2022-08-03T02:03:59.779Z,83.65
2022-08-03T02:07:01.140Z,83.76
2022-08-03T02:09:19.990Z,83.64
2022-08-03T02:11:47.582Z,84.59
2022-08-03T02:14:15.387Z,84.96
2022-08-03T02:16:43.872Z,84.94
2022-08-03T02:19:11.754Z,85.47
2022-08-03T02:21:57.355Z,86.76
2022-08-03T02:24:26.624Z,85.74
2022-08-03T02:26:56.405Z,86.81
2022-08-03T02:29:39.761Z,86.26
2022-08-03T02:32:12.596Z,85.45
2022-08-03T02:34:42.399Z,84.73
2022-08-03T02:37:10.710Z,84.55
2022-08-03T02:39:40.542Z,84.09
2022-08-03T02:42:09.591Z,85.58
2022-08-03T02:44:40.458Z,86.18
2022-08-03T02:47:10.968Z,86.94
2022-08-03T02:49:50.264Z,87.05
2022-08-03T02:52:21.533Z,84.51
2022-08-03T02:54:51.269Z,82.27
2022-08-03T02:57:20.133Z,83.19
2022-08-03T02:59:47.646Z,83.58
2022-08-03T03:02:17.068Z,84.00
2022-08-03T03:05:52.906Z,84.13
2022-08-03T03:07:35.323Z,84.50
2022-08-03T03:10:20.087Z,85.75
2022-08-03T03:12:48.304Z,85.70
2022-08-03T03:15:14.975Z,85.84
2022-08-03T03:17:43.290Z,85.92
2022-08-03T03:20:10.681Z,86.45
2022-08-03T03:22:38.527Z,86.38
2022-08-03T03:25:08.183Z,85.76
2022-08-03T03:27:35.431Z,85.26
2022-08-03T03:30:04.272Z,85.90
2022-08-03T03:32:31.492Z,86.52
2022-08-03T03:35:00.821Z,86.81
2022-08-03T03:37:27.474Z,86.74
2022-08-03T03:39:57.155Z,87.45
2022-08-03T03:42:25.082Z,87.91
2022-08-03T03:44:51.780Z,87.39
2022-08-03T03:47:18.733Z,87.29
2022-08-03T03:49:59.685Z,87.88
2022-08-03T03:52:26.316Z,88.18
2022-08-03T03:54:56.318Z,88.38
2022-08-03T03:57:26.222Z,88.50
2022-08-03T03:59:53.007Z,87.52
2022-08-03T04:02:19.622Z,86.71
2022-08-03T04:05:04.638Z,87.05
2022-08-03T04:08:05.202Z,87.46
2022-08-03T04:10:54.758Z,86.96
2022-08-03T04:13:22.748Z,86.62
2022-08-03T04:15:50.635Z,86.49
2022-08-03T04:18:18.759Z,88.50
2022-08-03T04:20:48.835Z,89.63
2022-08-03T04:23:20.451Z,89.13
2022-08-03T04:25:51.542Z,87.74
2022-08-03T04:28:30.343Z,87.42
2022-08-03T04:31:00.530Z,86.48
2022-08-03T04:33:30.334Z,85.79
2022-08-03T04:36:01.983Z,86.86
2022-08-03T04:38:33.029Z,86.66
2022-08-03T04:41:01.092Z,86.83
2022-08-03T04:43:28.711Z,86.60
2022-08-03T04:45:56.635Z,86.71
2022-08-03T04:48:23.438Z,87.05
2022-08-03T04:50:50.246Z,87.05
2022-08-03T04:53:17.491Z,86.59
2022-08-03T04:55:44.423Z,87.03
2022-08-03T04:58:12.603Z,86.71
2022-08-03T05:00:39.388Z,85.93
2022-08-03T05:03:20.395Z,86.78
2022-08-03T05:06:02.019Z,83.58
2022-08-03T05:08:46.261Z,83.34
2022-08-03T05:11:17.387Z,84.25
2022-08-03T05:13:47.312Z,84.28
2022-08-03T05:16:14.768Z,84.95
2022-08-03T05:18:42.069Z,85.71
2022-08-03T05:21:10.287Z,85.43
2022-08-03T05:23:37.929Z,84.16
2022-08-03T05:26:04.581Z,82.97
2022-08-03T05:28:31.170Z,80.85
2022-08-03T05:30:57.939Z,82.84
2022-08-03T05:33:24.528Z,81.45
2022-08-03T05:36:00.872Z,81.35
2022-08-03T05:38:34.109Z,81.03
2022-08-03T05:41:23.127Z,79.26
2022-08-03T05:43:47.645Z,78.96
2022-08-03T05:46:14.332Z,79.02
2022-08-03T05:48:42.273Z,79.73
2022-08-03T05:51:11.723Z,77.76
2022-08-03T05:53:39.122Z,77.35
2022-08-03T05:56:14.238Z,73.69
2022-08-03T05:58:47.089Z,69.97
2022-08-03T06:01:14.838Z,69.34
2022-08-03T06:03:41.621Z,67.49
2022-08-03T06:06:08.221Z,65.91
2022-08-03T06:08:35.270Z,64.86
2022-08-03T06:11:01.922Z,59.49
2022-08-03T06:13:28.497Z,59.28
2022-08-03T06:15:55.087Z,58.88
2022-08-03T06:18:21.755Z,57.78
2022-08-03T06:20:49.408Z,58.69
2022-08-03T06:23:17.752Z,57.72
2022-08-03T06:25:44.843Z,55.09
2022-08-03T06:28:35.439Z,53.59
2022-08-03T06:30:59.154Z,51.62
2022-08-03T06:33:26.545Z,50.42
2022-08-03T06:36:13.142Z,49.77
2022-08-03T06:38:39.755Z,49.41
2022-08-03T06:41:06.332Z,49.33
2022-08-03T06:43:35.988Z,50.03
2022-08-03T06:46:02.692Z,49.71
2022-08-03T06:48:30.058Z,50.23
2022-08-03T06:50:56.641Z,48.94
2022-08-03T06:53:23.266Z,48.76
2022-08-03T06:55:54.202Z,47.76
2022-08-03T06:58:21.392Z,46.75
2022-08-03T07:00:48.078Z,49.00
2022-08-03T07:03:15.198Z,47.14
2022-08-03T07:05:43.539Z,47.91
2022-08-03T07:08:10.521Z,47.45
2022-08-03T07:10:40.184Z,45.83
2022-08-03T07:13:07.057Z,48.78
2022-08-03T07:15:55.293Z,47.20
2022-08-03T07:18:28.289Z,47.96
2022-08-03T07:20:58.178Z,45.60
2022-08-03T07:23:25.591Z,43.20
2022-08-03T07:25:52.467Z,43.30
2022-08-03T07:28:19.978Z,43.05
2022-08-03T07:30:47.057Z,44.38
2022-08-03T07:33:13.981Z,42.94
2022-08-03T07:35:40.567Z,43.17
2022-08-03T07:38:07.144Z,42.54
2022-08-03T07:40:33.774Z,42.21
2022-08-03T07:43:00.509Z,41.87
2022-08-03T07:45:27.154Z,41.62
2022-08-03T07:47:54.532Z,41.08
2022-08-03T07:50:22.456Z,43.36
2022-08-03T07:52:50.376Z,42.37
2022-08-03T07:55:22.473Z,42.56
2022-08-03T07:58:10.033Z,44.39
2022-08-03T08:00:37.100Z,44.62
2022-08-03T08:03:04.756Z,43.30
2022-08-03T08:05:31.935Z,41.76
2022-08-03T08:07:58.572Z,44.60
2022-08-03T08:10:25.325Z,42.94
2022-08-03T08:12:52.167Z,43.09
2022-08-03T08:15:18.815Z,44.31
2022-08-03T08:17:48.162Z,42.53
2022-08-03T08:20:25.174Z,41.99
2022-08-03T08:23:01.008Z,43.16
2022-08-03T08:25:28.989Z,45.13
2022-08-03T08:28:31.805Z,44.30
2022-08-03T08:30:42.131Z,51.82
2022-08-03T08:33:10.489Z,50.21
2022-08-03T08:35:50.379Z,52.12
2022-08-03T08:38:17.002Z,46.04
2022-08-03T08:40:43.750Z,44.68
2022-08-03T08:43:10.607Z,45.69
2022-08-03T08:45:37.801Z,42.70
2022-08-03T08:48:08.375Z,45.17
2022-08-03T08:50:37.513Z,44.36
2022-08-03T08:53:11.660Z,45.88
2022-08-03T08:56:00.091Z,42.79
2022-08-03T08:58:32.639Z,42.75
2022-08-03T09:00:59.433Z,43.71
2022-08-03T09:03:29.823Z,43.40
2022-08-03T09:05:59.367Z,45.30
2022-08-03T09:08:26.220Z,43.50
2022-08-03T09:10:52.821Z,44.64
2022-08-03T09:13:19.467Z,43.75
2022-08-03T09:16:00.997Z,41.65
2022-08-03T09:18:33.391Z,43.29
2022-08-03T09:21:34.855Z,47.63
2022-08-03T09:24:05.350Z,43.24
2022-08-03T09:26:35.066Z,44.17
2022-08-03T09:29:09.577Z,44.62
2022-08-03T09:31:43.511Z,41.53
2022-08-03T09:34:13.554Z,43.96
2022-08-03T09:36:43.484Z,41.53
2022-08-03T09:39:12.869Z,41.24
2022-08-03T09:41:46.490Z,42.54
2022-08-03T09:44:24.079Z,43.10
2022-08-03T09:46:56.972Z,42.07
2022-08-03T09:49:24.821Z,43.09
2022-08-03T09:52:32.900Z,43.72
2022-08-03T09:54:41.283Z,40.77
2022-08-03T09:57:08.076Z,39.11
2022-08-03T09:59:34.907Z,39.58
2022-08-03T10:02:02.019Z,40.63
2022-08-03T10:04:29.184Z,39.93
2022-08-03T10:07:07.176Z,40.89
2022-08-03T10:09:34.026Z,40.51
2022-08-03T10:12:12.334Z,46.93
2022-08-03T10:14:41.868Z,43.78
2022-08-03T10:17:09.790Z,44.49
2022-08-03T10:19:36.789Z,40.01
2022-08-03T10:22:23.835Z,41.64
2022-08-03T10:25:07.504Z,44.67
2022-08-03T10:27:39.616Z,45.45
2022-08-03T10:30:11.510Z,41.12
2022-08-03T10:32:49.447Z,42.11
2022-08-03T10:35:19.865Z,38.29
2022-08-03T10:38:12.780Z,42.47
2022-08-03T10:40:48.523Z,41.45
2022-08-03T10:43:22.945Z,41.70
2022-08-03T10:45:50.087Z,37.03
2022-08-03T10:48:17.929Z,38.73
2022-08-03T10:50:45.415Z,40.83
2022-08-03T10:53:12.791Z,41.48
2022-08-03T10:56:04.011Z,40.20
2022-08-03T10:58:57.168Z,39.65
2022-08-03T11:01:59.025Z,40.55
2022-08-03T11:04:26.642Z,40.15
2022-08-03T11:07:24.638Z,39.94
2022-08-03T11:09:56.288Z,37.75
2022-08-03T11:12:32.525Z,41.56
2022-08-03T11:15:02.264Z,40.60
2022-08-03T11:17:29.101Z,39.29
2022-08-03T11:19:56.815Z,42.33
2022-08-03T11:22:25.606Z,40.20
2022-08-03T11:24:54.400Z,36.29
2022-08-03T11:27:23.122Z,38.22
2022-08-03T11:30:20.555Z,37.40
2022-08-03T11:32:57.875Z,38.03
2022-08-03T11:35:30.815Z,35.41
2022-08-03T11:38:01.986Z,39.54
2022-08-03T11:40:50.364Z,38.90
2022-08-03T11:43:25.743Z,35.50
2022-08-03T11:46:04.396Z,34.26
2022-08-03T11:48:34.695Z,34.05
2022-08-03T11:51:02.301Z,35.29
2022-08-03T11:53:29.346Z,35.84
2022-08-03T11:55:59.613Z,35.53
2022-08-03T11:59:16.989Z,41.12
2022-08-03T12:01:13.643Z,38.88
2022-08-03T12:03:40.268Z,36.26
2022-08-03T12:06:11.226Z,38.59
2022-08-03T12:08:38.508Z,36.29
2022-08-03T12:11:07.679Z,38.46
2022-08-03T12:14:35.656Z,38.27
2022-08-03T12:16:32.528Z,37.05
2022-08-03T12:19:05.043Z,35.81
2022-08-03T12:21:32.259Z,34.75
2022-08-03T12:24:05.520Z,35.40
2022-08-03T12:26:58.694Z,40.37
2022-08-03T12:29:26.718Z,40.03
2022-08-03T12:31:53.185Z,37.12
2022-08-03T12:34:19.762Z,37.55
2022-08-03T12:36:56.510Z,38.98
2022-08-03T12:39:25.535Z,38.18
2022-08-03T12:41:56.533Z,35.51
2022-08-03T12:44:31.450Z,39.51
2022-08-03T12:46:59.139Z,35.33
2022-08-03T12:49:26.527Z,34.47
2022-08-03T12:51:53.329Z,34.87
2022-08-03T12:54:24.820Z,34.41
2022-08-03T12:57:02.711Z,36.29
2022-08-03T12:59:40.702Z,34.91
2022-08-03T13:02:23.773Z,33.99
2022-08-03T13:04:51.952Z,35.87
2022-08-03T13:07:19.889Z,37.28
2022-08-03T13:09:46.780Z,34.36
2022-08-03T13:12:18.324Z,33.84
2022-08-03T13:14:50.051Z,33.99
2022-08-03T13:17:17.085Z,35.38
2022-08-03T13:19:44.042Z,36.10
2022-08-03T13:22:11.584Z,39.10
2022-08-03T13:24:38.353Z,39.58
2022-08-03T13:28:04.795Z,39.93
2022-08-03T13:29:54.342Z,41.38
2022-08-03T13:32:21.272Z,42.47
2022-08-03T13:34:47.827Z,42.01
2022-08-03T13:37:15.356Z,43.99
2022-08-03T13:39:48.276Z,40.25
2022-08-03T13:42:27.147Z,40.85
2022-08-03T13:44:53.735Z,42.88
2022-08-03T13:47:20.976Z,41.93
2022-08-03T13:49:59.454Z,40.07
2022-08-03T13:52:32.457Z,41.92
2022-08-03T13:54:59.949Z,41.71
2022-08-03T13:58:04.907Z,40.58
2022-08-03T14:00:26.353Z,40.34
2022-08-03T14:03:01.791Z,41.01
2022-08-03T14:05:32.025Z,40.99
2022-08-03T14:08:04.161Z,41.13
2022-08-03T14:10:32.755Z,45.50
2022-08-03T14:13:00.519Z,45.83
2022-08-03T14:15:28.745Z,46.54
2022-08-03T14:17:56.429Z,47.19
2022-08-03T14:20:37.249Z,44.41
2022-08-03T14:23:14.206Z,49.02
2022-08-03T14:25:44.558Z,45.03
2022-08-03T14:28:23.068Z,46.09
2022-08-03T14:30:51.015Z,45.46
2022-08-03T14:33:17.752Z,45.00
2022-08-03T14:35:44.389Z,41.73
2022-08-03T14:38:11.242Z,41.08
2022-08-03T14:40:37.883Z,43.78
2022-08-03T14:43:04.743Z,41.97
2022-08-03T14:45:31.347Z,39.08
2022-08-03T14:50:31.107Z,40.30
2022-08-03T14:50:50.971Z,42.47
2022-08-03T14:53:19.509Z,39.64
2022-08-03T14:55:50.461Z,42.83
2022-08-03T14:58:20.889Z,42.65
2022-08-03T15:00:48.267Z,40.57
2022-08-03T15:03:15.897Z,43.14
2022-08-03T15:05:43.778Z,42.00
2022-08-03T15:08:10.378Z,41.99
2022-08-03T15:10:44.508Z,45.15
2022-08-03T15:13:13.163Z,45.81
2022-08-03T15:15:40.083Z,45.24
2022-08-03T15:18:06.725Z,43.88
2022-08-03T15:20:43.827Z,44.47
2022-08-03T15:23:12.714Z,42.80
2022-08-03T15:26:29.293Z,46.22
2022-08-03T15:28:25.795Z,40.67
2022-08-03T15:30:53.815Z,42.05
2022-08-03T15:33:20.799Z,42.94
2022-08-03T15:35:47.831Z,39.98
2022-08-03T15:38:14.774Z,43.25
2022-08-03T15:41:13.683Z,43.08
2022-08-03T15:43:41.179Z,41.38
2022-08-03T15:46:30.376Z,40.82
2022-08-03T15:48:57.153Z,40.21
2022-08-03T15:51:23.781Z,39.08
2022-08-03T15:53:50.378Z,37.99
2022-08-03T15:56:18.896Z,38.64
2022-08-03T15:59:03.435Z,35.42
2022-08-03T16:01:32.863Z,37.68
2022-08-03T16:03:59.505Z,36.85
2022-08-03T16:06:35.477Z,36.22
2022-08-03T16:09:24.090Z,40.45
2022-08-03T16:11:53.661Z,41.28
2022-08-03T16:14:32.110Z,39.34
2022-08-03T16:17:04.612Z,41.48
2022-08-03T16:19:31.309Z,41.77
2022-08-03T16:21:57.980Z,40.83
2022-08-03T16:24:27.896Z,41.15
2022-08-03T16:26:55.451Z,42.21
2022-08-03T16:29:23.086Z,41.44
2022-08-03T16:31:51.391Z,39.77
2022-08-03T16:34:18.223Z,43.72
2022-08-03T16:36:45.653Z,43.68
2022-08-03T16:39:12.311Z,42.17
2022-08-03T16:41:54.393Z,40.48
2022-08-03T16:44:25.774Z,40.33
2022-08-03T16:46:53.674Z,40.97
2022-08-03T16:49:55.160Z,41.48
2022-08-03T16:52:07.163Z,40.88
2022-08-03T16:54:34.037Z,42.57
2022-08-03T16:57:01.797Z,43.35
2022-08-03T16:59:36.025Z,43.88
2022-08-03T17:02:09.994Z,42.29
2022-08-03T17:04:36.974Z,43.49
2022-08-03T17:07:08.900Z,42.44
2022-08-03T17:09:38.817Z,43.38
2022-08-03T17:12:05.998Z,41.27
2022-08-03T17:14:33.976Z,42.53
2022-08-03T17:17:04.960Z,43.73
2022-08-03T17:19:36.629Z,47.74
2022-08-03T17:22:09.411Z,48.79
2022-08-03T17:24:41.458Z,48.10
2022-08-03T17:28:41.765Z,48.28
2022-08-03T17:30:05.494Z,46.83
2022-08-03T17:32:42.480Z,48.26
2022-08-03T17:35:18.939Z,51.73
2022-08-03T17:37:58.621Z,54.16
2022-08-03T17:40:31.390Z,50.95
2022-08-03T17:43:00.341Z,50.92
2022-08-03T17:45:51.894Z,47.49
2022-08-03T17:48:18.602Z,52.39
2022-08-03T17:51:24.269Z,50.29
2022-08-03T17:53:57.387Z,48.92
2022-08-03T17:56:59.825Z,49.86
2022-08-03T18:00:24.255Z,50.67
2022-08-03T18:03:21.037Z,52.64
2022-08-03T18:06:11.859Z,52.91
2022-08-03T18:08:38.460Z,51.70
2022-08-03T18:11:14.449Z,52.77
2022-08-03T18:14:17.289Z,52.78
2022-08-03T18:16:46.471Z,52.66
2022-08-03T18:19:14.231Z,52.10
2022-08-03T18:22:03.515Z,51.36
2022-08-03T18:24:30.089Z,51.04
2022-08-03T18:26:57.095Z,51.41
2022-08-03T18:29:25.794Z,51.57
2022-08-03T18:32:03.134Z,52.31
2022-08-03T18:34:34.121Z,50.04
2022-08-03T18:37:07.299Z,50.50
2022-08-03T18:39:49.346Z,51.04
2022-08-03T18:42:20.088Z,50.28
2022-08-03T18:44:56.021Z,50.35
2022-08-03T18:47:52.442Z,49.63
2022-08-03T18:50:39.083Z,45.95
2022-08-03T18:53:19.415Z,46.34
2022-08-03T18:56:01.870Z,51.98
2022-08-03T18:58:38.929Z,50.63
2022-08-03T19:01:59.670Z,49.95
2022-08-03T19:04:12.178Z,53.24
2022-08-03T19:06:48.249Z,54.89
2022-08-03T19:09:17.537Z,55.94
2022-08-03T19:12:13.127Z,52.10
2022-08-03T19:14:43.193Z,57.79
2022-08-03T19:17:11.997Z,59.06
2022-08-03T19:19:44.921Z,61.48
2022-08-03T19:22:16.225Z,63.47
2022-08-03T19:24:45.571Z,60.66
2022-08-03T19:27:12.946Z,60.69
2022-08-03T19:32:36.533Z,59.83
2022-08-03T19:35:04.746Z,60.60
2022-08-03T19:37:40.419Z,66.39
2022-08-03T19:40:10.765Z,64.50
2022-08-03T19:42:45.299Z,63.33
2022-08-03T19:45:17.024Z,64.52
2022-08-03T19:47:52.532Z,64.10
2022-08-03T19:50:20.556Z,63.35
2022-08-03T19:52:48.952Z,63.46
2022-08-03T19:55:16.971Z,61.53
2022-08-03T19:57:49.390Z,61.76
2022-08-03T20:00:19.646Z,62.31
2022-08-03T20:02:46.515Z,62.01
2022-08-03T20:05:15.340Z,60.62
2022-08-03T20:07:47.938Z,60.36
2022-08-03T20:10:16.509Z,61.75
2022-08-03T20:12:44.482Z,61.36
2022-08-03T20:15:11.594Z,64.33
2022-08-03T20:17:54.421Z,62.63
2022-08-03T20:20:34.073Z,64.92
2022-08-03T20:23:06.816Z,67.81
2022-08-03T20:25:48.965Z,66.00
2022-08-03T20:28:29.060Z,59.64
2022-08-03T20:30:56.348Z,63.76
2022-08-03T20:33:27.896Z,64.96
2022-08-03T20:36:11.232Z,63.91
2022-08-03T20:41:24.564Z,62.80
2022-08-03T20:43:51.230Z,61.32
2022-08-03T20:46:31.075Z,60.38
2022-08-03T20:49:04.293Z,58.22
2022-08-03T20:51:49.242Z,61.19
2022-08-03T20:54:29.389Z,63.94
2022-08-03T20:56:57.995Z,64.46
2022-08-03T20:59:28.861Z,66.54
2022-08-03T21:01:57.118Z,68.29
2022-08-03T21:04:24.062Z,70.33
2022-08-03T21:07:03.572Z,68.66
2022-08-03T21:09:55.840Z,67.37
2022-08-03T21:12:33.509Z,69.77
2022-08-03T21:13:02.300Z,61.27
2022-08-03T21:13:13.297Z,64.59
2022-08-03T21:15:05.019Z,70.25
2022-08-03T21:17:41.481Z,68.96
2022-08-03T21:20:11.084Z,68.07
2022-08-03T21:22:39.375Z,67.25
2022-08-03T21:25:09.307Z,65.31
2022-08-03T21:27:37.008Z,66.63
2022-08-03T21:30:07.565Z,66.38
2022-08-03T21:32:34.666Z,66.09
2022-08-03T21:35:01.482Z,68.52
2022-08-03T21:37:28.966Z,67.08
2022-08-03T21:39:56.274Z,68.92
2022-08-03T21:42:26.294Z,69.47
2022-08-03T21:44:54.019Z,67.29
2022-08-03T21:47:24.815Z,68.21
2022-08-03T21:50:06.437Z,68.58
2022-08-03T21:52:42.061Z,68.45
2022-08-03T21:55:09.178Z,68.64
2022-08-03T21:57:51.990Z,68.85
2022-08-03T22:00:20.487Z,69.31
2022-08-03T22:02:58.391Z,69.63
2022-08-03T22:05:42.946Z,69.35
2022-08-03T22:08:13.385Z,70.49
2022-08-03T22:10:40.913Z,70.49
2022-08-03T22:13:07.593Z,69.62
2022-08-03T22:15:34.356Z,69.79
2022-08-03T22:18:03.640Z,70.94
2022-08-03T22:20:30.366Z,69.81
2022-08-03T22:23:05.622Z,69.67
2022-08-03T22:25:36.488Z,70.08
2022-08-03T22:28:08.853Z,70.11
2022-08-03T22:30:36.650Z,70.10
2022-08-03T22:33:11.214Z,69.83
2022-08-03T22:35:48.991Z,71.28
2022-08-03T22:38:16.626Z,70.32
2022-08-03T22:40:44.579Z,70.47
2022-08-03T22:43:11.185Z,68.46
2022-08-03T22:46:06.324Z,68.42
2022-08-03T22:48:26.227Z,70.05
2022-08-03T22:50:52.853Z,69.22
2022-08-03T22:53:21.896Z,71.09
2022-08-03T22:55:49.435Z,70.17
2022-08-03T22:58:16.761Z,71.05
2022-08-03T23:00:53.657Z,71.04
2022-08-03T23:03:24.492Z,71.47
2022-08-03T23:06:01.866Z,70.14
2022-08-03T23:08:33.132Z,69.07
2022-08-03T23:11:08.688Z,69.09
2022-08-03T23:13:36.413Z,72.40
2022-08-03T23:16:06.520Z,71.38
2022-08-03T23:18:39.594Z,73.33
2022-08-03T23:21:11.024Z,72.13
2022-08-03T23:23:44.305Z,72.74
2022-08-03T23:26:12.685Z,72.96
2022-08-03T23:28:42.177Z,73.28
2022-08-03T23:31:09.575Z,73.53
2022-08-03T23:33:38.951Z,72.43
2022-08-03T23:36:28.419Z,74.04
2022-08-03T23:38:53.610Z,72.17
2022-08-03T23:41:20.385Z,74.92
